VKG048 EKRN-LGSK
Flight info
| Callsign | VKG048 |
|---|---|
| Flight time | N/A |
| Altitude | 35000 |
| Route | DCT ROE L996 DENKO DCT VALPI DCT NIT DCT ALAMU DCT VEBOS DCT TONDO DCT RAXAD DCT SKP DCT |
| Aircraft | A321/M-SDE3FGHIRWY/LB1 |
Departure
| Time | 2026-05-05 08:03 |
|---|---|
| Airport | Bornholm Airport (EKRN) |
Arrival
| Time | N/A |
|---|---|
| Airport | Skiathos Island National Airport (LGSK) |
| Time | Latitude | Longitude | Altitude | Speed | Heading |
|---|---|---|---|---|---|
| 2026-05-05 07:28 | 55.06899 | 14.74914 | 48 ft | 0 kts | 113° |
| 2026-05-05 07:59 | 55.06888 | 14.74936 | 52 ft | 7 kts | 152° |
| 2026-05-05 07:59 | 55.06863 | 14.74908 | 53 ft | 4 kts | 221° |
| 2026-05-05 07:59 | 55.06835 | 14.74873 | 53 ft | 9 kts | 211° |
| 2026-05-05 08:00 | 55.06767 | 14.74853 | 53 ft | 9 kts | 184° |
| 2026-05-05 08:00 | 55.06703 | 14.74848 | 53 ft | 10 kts | 181° |
| 2026-05-05 08:00 | 55.06642 | 14.74843 | 53 ft | 8 kts | 189° |
| 2026-05-05 08:00 | 55.06626 | 14.74784 | 53 ft | 5 kts | 283° |
| 2026-05-05 08:01 | 55.06647 | 14.74688 | 52 ft | 14 kts | 292° |
| 2026-05-05 08:01 | 55.06680 | 14.74554 | 53 ft | 10 kts | 293° |
| 2026-05-05 08:01 | 55.06709 | 14.74494 | 53 ft | 5 kts | 307° |
| 2026-05-05 08:01 | 55.06699 | 14.74480 | 53 ft | 2 kts | 195° |
| 2026-05-05 08:02 | 55.06693 | 14.74496 | 52 ft | 1 kts | 110° |
| 2026-05-05 08:02 | 55.06683 | 14.74542 | 53 ft | 19 kts | 112° |
| 2026-05-05 08:02 | 55.06516 | 14.75214 | 54 ft | 97 kts | 114° |
| 2026-05-05 08:02 | 55.06163 | 14.76627 | 49 ft | 154 kts | 113° |
| 2026-05-05 08:03 | 55.05702 | 14.78435 | 494 ft | 162 kts | 114° |
| 2026-05-05 08:03 | 55.05238 | 14.80208 | 1201 ft | 160 kts | 116° |
| 2026-05-05 08:03 | 55.04712 | 14.81919 | 1873 ft | 160 kts | 121° |
| 2026-05-05 08:03 | 55.03942 | 14.83329 | 2250 ft | 169 kts | 158° |
| 2026-05-05 08:04 | 55.02736 | 14.83534 | 2411 ft | 183 kts | 181° |
| 2026-05-05 08:04 | 55.01408 | 14.83563 | 2544 ft | 202 kts | 180° |
| 2026-05-05 08:04 | 54.99930 | 14.83645 | 2664 ft | 224 kts | 179° |
| 2026-05-05 08:04 | 54.98286 | 14.83770 | 2863 ft | 249 kts | 178° |
| 2026-05-05 08:05 | 54.96518 | 14.83934 | 3471 ft | 258 kts | 179° |
| 2026-05-05 08:05 | 54.94711 | 14.84124 | 4233 ft | 262 kts | 179° |
| 2026-05-05 08:05 | 54.92882 | 14.84326 | 5009 ft | 266 kts | 180° |
| 2026-05-05 08:05 | 54.91028 | 14.84537 | 5784 ft | 268 kts | 180° |
| 2026-05-05 08:06 | 54.89152 | 14.84754 | 6512 ft | 272 kts | 181° |
| 2026-05-05 08:06 | 54.87281 | 14.84972 | 7199 ft | 274 kts | 181° |
| 2026-05-05 08:06 | 54.85376 | 14.85192 | 7965 ft | 275 kts | 180° |
| 2026-05-05 08:06 | 54.83457 | 14.85418 | 8689 ft | 278 kts | 181° |
| 2026-05-05 08:07 | 54.81518 | 14.85649 | 9392 ft | 281 kts | 181° |
| 2026-05-05 08:07 | 54.79564 | 14.86118 | 10048 ft | 288 kts | 173° |
| 2026-05-05 08:07 | 54.77549 | 14.86864 | 10306 ft | 307 kts | 173° |
| 2026-05-05 08:07 | 54.75384 | 14.87655 | 10432 ft | 329 kts | 172° |
| 2026-05-05 08:08 | 54.73091 | 14.88495 | 10732 ft | 342 kts | 172° |
| 2026-05-05 08:08 | 54.70776 | 14.89351 | 11313 ft | 347 kts | 172° |
| 2026-05-05 08:08 | 54.68406 | 14.90224 | 11942 ft | 349 kts | 172° |
| 2026-05-05 08:08 | 54.66023 | 14.91101 | 12593 ft | 352 kts | 172° |
| 2026-05-05 08:09 | 54.63621 | 14.91985 | 13240 ft | 354 kts | 172° |
| 2026-05-05 08:09 | 54.61202 | 14.92876 | 13880 ft | 357 kts | 172° |
| 2026-05-05 08:09 | 54.58767 | 14.93773 | 14457 ft | 358 kts | 172° |
| 2026-05-05 08:09 | 54.56326 | 14.94668 | 15077 ft | 359 kts | 172° |
| 2026-05-05 08:10 | 54.53909 | 14.95549 | 15653 ft | 361 kts | 172° |
| 2026-05-05 08:10 | 54.51444 | 14.96443 | 16222 ft | 363 kts | 172° |
| 2026-05-05 08:10 | 54.48965 | 14.97335 | 16778 ft | 365 kts | 172° |
| 2026-05-05 08:10 | 54.46466 | 14.98234 | 17322 ft | 368 kts | 172° |
| 2026-05-05 08:11 | 54.43953 | 14.99143 | 17856 ft | 371 kts | 172° |
| 2026-05-05 08:11 | 54.41424 | 15.00060 | 18363 ft | 373 kts | 172° |
| 2026-05-05 08:11 | 54.38871 | 15.00988 | 18806 ft | 376 kts | 173° |
| 2026-05-05 08:11 | 54.36307 | 15.01921 | 19243 ft | 378 kts | 173° |
| 2026-05-05 08:12 | 54.33718 | 15.02865 | 19671 ft | 381 kts | 173° |
| 2026-05-05 08:12 | 54.31115 | 15.03810 | 20066 ft | 384 kts | 172° |
| 2026-05-05 08:12 | 54.28521 | 15.04748 | 20460 ft | 388 kts | 173° |
| 2026-05-05 08:12 | 54.25874 | 15.05703 | 20860 ft | 391 kts | 173° |
| 2026-05-05 08:13 | 54.23204 | 15.06666 | 21284 ft | 393 kts | 173° |
| 2026-05-05 08:13 | 54.20516 | 15.07631 | 21730 ft | 396 kts | 173° |
| 2026-05-05 08:13 | 54.17809 | 15.08601 | 22190 ft | 399 kts | 173° |
| 2026-05-05 08:13 | 54.15083 | 15.09577 | 22623 ft | 402 kts | 173° |
| 2026-05-05 08:14 | 54.12337 | 15.10555 | 23030 ft | 404 kts | 173° |
| 2026-05-05 08:14 | 54.09581 | 15.11536 | 23429 ft | 406 kts | 173° |
| 2026-05-05 08:14 | 54.06844 | 15.12509 | 23772 ft | 409 kts | 173° |
| 2026-05-05 08:14 | 54.04053 | 15.13496 | 24125 ft | 410 kts | 173° |
| 2026-05-05 08:15 | 54.01255 | 15.14487 | 24496 ft | 411 kts | 173° |
| 2026-05-05 08:15 | 53.98447 | 15.15483 | 24852 ft | 412 kts | 173° |
| 2026-05-05 08:15 | 53.95637 | 15.16477 | 25214 ft | 414 kts | 173° |
| 2026-05-05 08:15 | 53.92816 | 15.17474 | 25562 ft | 415 kts | 173° |
| 2026-05-05 08:16 | 53.89982 | 15.18473 | 25902 ft | 416 kts | 173° |
| 2026-05-05 08:16 | 53.87139 | 15.19472 | 26241 ft | 418 kts | 173° |
| 2026-05-05 08:16 | 53.84287 | 15.20477 | 26588 ft | 419 kts | 173° |
| 2026-05-05 08:16 | 53.81464 | 15.21471 | 26920 ft | 421 kts | 174° |
| 2026-05-05 08:17 | 53.78596 | 15.22474 | 27263 ft | 422 kts | 174° |
| 2026-05-05 08:17 | 53.75713 | 15.23476 | 27570 ft | 423 kts | 174° |
| 2026-05-05 08:17 | 53.72823 | 15.24479 | 27891 ft | 425 kts | 174° |
| 2026-05-05 08:17 | 53.69922 | 15.25486 | 28193 ft | 426 kts | 174° |
| 2026-05-05 08:18 | 53.67011 | 15.26496 | 28486 ft | 428 kts | 174° |
| 2026-05-05 08:18 | 53.64088 | 15.27507 | 28815 ft | 429 kts | 174° |
| 2026-05-05 08:18 | 53.61156 | 15.28526 | 29121 ft | 431 kts | 173° |
| 2026-05-05 08:18 | 53.58277 | 15.29534 | 29416 ft | 433 kts | 173° |
| 2026-05-05 08:19 | 53.55326 | 15.30571 | 29712 ft | 435 kts | 173° |
| 2026-05-05 08:19 | 53.52361 | 15.31613 | 30047 ft | 435 kts | 173° |
| 2026-05-05 08:19 | 53.49404 | 15.32654 | 30367 ft | 434 kts | 172° |
| 2026-05-05 08:19 | 53.46499 | 15.34137 | 30676 ft | 440 kts | 163° |
| 2026-05-05 08:20 | 53.43693 | 15.36245 | 30987 ft | 442 kts | 161° |